Time;durP1;ratioP1;P1;durP2;ratioP2;P2;SDS_P1;SDS_P2;PMS_P1;PMS_P2;Temp;Humidity;BMP_temperature;BMP_pressure;BME280_temperature;BME280_humidity;BME280_pressure;Samples;Min_cycle;Max_cycle;Signal;HPM_P1;HPM_P2
2022/05/09 00:02:33;;;;;;;2.83;2.10;;;;;10.60;102165.00;;;;4927973;28;20239;-71
2022/05/09 00:05:22;;;;;;;5.17;2.53;;;;;10.70;102173.00;;;;4928662;28;20626;-70
2022/05/09 00:08:08;;;;;;;4.93;2.23;;;;;10.60;102173.00;;;;4928173;28;22410;-73
2022/05/09 00:10:55;;;;;;;3.70;2.20;;;;;10.70;102168.00;;;;4920880;28;20245;-72
2022/05/09 00:13:41;;;;;;;5.37;2.50;;;;;10.40;102163.00;;;;4927586;28;20236;-72
2022/05/09 00:16:33;;;;;;;4.40;2.43;;;;;10.50;102162.00;;;;4927597;28;20346;-72
2022/05/09 00:19:21;;;;;;;3.73;2.47;;;;;10.50;102168.00;;;;4927971;28;20244;-72
2022/05/09 00:22:09;;;;;;;5.43;2.43;;;;;10.50;102169.00;;;;4924135;28;20363;-72
2022/05/09 00:24:59;;;;;;;2.93;2.10;;;;;10.50;102166.00;;;;4920471;28;20303;-72
2022/05/09 00:27:45;;;;;;;3.53;2.40;;;;;10.40;102160.00;;;;4928170;28;20240;-72
2022/05/09 00:30:32;;;;;;;2.87;2.30;;;;;10.50;102167.00;;;;4927074;28;20244;-73
2022/05/09 00:33:18;;;;;;;6.30;2.47;;;;;10.50;102162.00;;;;4930065;28;20795;-70
2022/05/09 00:36:04;;;;;;;6.63;2.23;;;;;10.50;102157.00;;;;4921787;28;20234;-73
2022/05/09 00:38:52;;;;;;;4.57;2.63;;;;;10.60;102157.00;;;;4927294;28;20371;-69
2022/05/09 00:41:41;;;;;;;5.33;2.07;;;;;10.40;102164.00;;;;4926216;28;21431;-73
2022/05/09 00:44:27;;;;;;;4.97;2.60;;;;;10.50;102162.00;;;;4926324;28;20239;-71
2022/05/09 00:47:13;;;;;;;5.13;2.70;;;;;10.40;102158.00;;;;4927596;28;20228;-72
2022/05/09 00:50:03;;;;;;;5.77;2.40;;;;;10.40;102156.00;;;;4923244;28;20846;-72
2022/05/09 00:52:55;;;;;;;6.47;2.77;;;;;10.40;102153.00;;;;4926604;28;20374;-72
2022/05/09 00:55:47;;;;;;;4.53;2.90;;;;;10.40;102148.00;;;;4927333;28;20270;-73
2022/05/09 00:58:39;;;;;;;4.90;2.40;;;;;10.30;102158.00;;;;4927276;28;20236;-73
2022/05/09 01:01:25;;;;;;;4.00;2.20;;;;;10.30;102155.00;;;;4928262;28;20238;-71
2022/05/09 01:04:16;;;;;;;3.73;2.17;;;;;10.20;102152.00;;;;4924642;28;20243;-71
2022/05/09 01:07:03;;;;;;;5.20;2.50;;;;;10.30;102149.00;;;;4938049;28;20623;-71
2022/05/09 01:09:49;;;;;;;5.00;2.40;;;;;10.20;102134.00;;;;4931797;28;20236;-71
2022/05/09 01:12:39;;;;;;;6.23;2.63;;;;;10.20;102148.00;;;;4917806;28;20232;-71
2022/05/09 01:15:26;;;;;;;3.57;2.20;;;;;10.20;102151.00;;;;4927219;28;20804;-72
2022/05/09 01:18:14;;;;;;;2.20;2.00;;;;;10.10;102154.00;;;;4922332;28;20238;-70
2022/05/09 01:21:01;;;;;;;9.83;2.40;;;;;10.10;102154.00;;;;4914175;28;20263;-72
2022/05/09 01:23:48;;;;;;;6.63;2.50;;;;;10.10;102151.00;;;;4933139;28;20750;-72
2022/05/09 01:26:35;;;;;;;5.23;2.60;;;;;10.20;102145.00;;;;4927198;28;20239;-71
2022/05/09 01:29:28;;;;;;;3.30;2.17;;;;;10.20;102144.00;;;;4924909;28;20296;-72
2022/05/09 01:32:18;;;;;;;6.13;2.53;;;;;10.30;102135.00;;;;4926999;28;20246;-73
2022/05/09 01:35:09;;;;;;;3.83;2.47;;;;;10.30;102141.00;;;;4921085;28;20234;-68
2022/05/09 01:38:03;;;;;;;6.70;2.13;;;;;10.30;102134.00;;;;4918168;28;20750;-71
2022/05/09 01:40:51;;;;;;;3.83;2.23;;;;;10.20;102119.00;;;;4933121;28;20868;-70
2022/05/09 01:43:40;;;;;;;8.03;2.83;;;;;10.10;102126.00;;;;4930449;28;20236;-73
2022/05/09 01:46:28;;;;;;;5.57;2.87;;;;;10.20;102125.00;;;;4928127;28;20234;-70
2022/05/09 01:49:32;;;;;;;4.27;2.60;;;;;10.10;102120.00;;;;4925122;28;20248;-70
2022/05/09 01:52:19;;;;;;;5.07;2.50;;;;;10.10;102129.00;;;;4929490;28;20237;-72
2022/05/09 01:55:06;;;;;;;4.73;2.43;;;;;10.00;102122.00;;;;4929852;28;20719;-72
2022/05/09 01:57:53;;;;;;;8.90;2.73;;;;;10.00;102120.00;;;;4929606;28;20247;-70
2022/05/09 02:00:42;;;;;;;7.73;2.87;;;;;10.00;102118.00;;;;4927702;28;20610;-71
2022/05/09 02:03:29;;;;;;;7.93;2.70;;;;;10.00;102130.00;;;;4926716;28;20707;-71
2022/05/09 02:06:15;;;;;;;6.30;2.57;;;;;9.80;102129.00;;;;4931101;28;20289;-72
2022/05/09 02:09:01;;;;;;;5.83;2.80;;;;;9.80;102116.00;;;;4923404;28;20232;-72
2022/05/09 02:11:48;;;;;;;4.07;2.37;;;;;9.70;102121.00;;;;4930570;28;20235;-68
2022/05/09 02:14:37;;;;;;;3.37;2.30;;;;;9.70;102131.00;;;;4935064;28;20242;-71
2022/05/09 02:17:23;;;;;;;5.33;2.80;;;;;9.50;102128.00;;;;4930440;28;20230;-72
2022/05/09 02:20:12;;;;;;;4.17;2.40;;;;;9.50;102127.00;;;;4928811;28;20649;-72
2022/05/09 02:22:58;;;;;;;6.47;2.43;;;;;9.50;102129.00;;;;4922309;28;20324;-68
2022/05/09 02:25:45;;;;;;;5.23;2.40;;;;;9.40;102130.00;;;;4928351;28;20265;-73
2022/05/09 02:28:32;;;;;;;4.70;2.67;;;;;9.50;102145.00;;;;4928966;28;20268;-73
2022/05/09 02:31:21;;;;;;;3.20;2.20;;;;;9.50;102131.00;;;;4930126;28;20237;-71
2022/05/09 02:34:08;;;;;;;4.10;2.30;;;;;9.30;102116.00;;;;4923502;28;20244;-72
2022/05/09 02:36:54;;;;;;;4.50;2.57;;;;;9.40;102113.00;;;;4929387;28;20263;-70
2022/05/09 02:39:40;;;;;;;4.83;2.63;;;;;9.50;102111.00;;;;4929911;28;20609;-72
2022/05/09 02:42:26;;;;;;;3.57;2.40;;;;;9.40;102098.00;;;;4929473;28;20368;-71
2022/05/09 02:45:13;;;;;;;3.30;2.57;;;;;9.40;102103.00;;;;4923695;28;20262;-68
2022/05/09 02:48:02;;;;;;;3.20;2.13;;;;;9.40;102106.00;;;;4922050;28;20251;-71
2022/05/09 02:50:48;;;;;;;6.43;2.27;;;;;9.30;102107.00;;;;4929504;28;20244;-72
2022/05/09 02:53:36;;;;;;;6.13;2.70;;;;;9.30;102107.00;;;;4927842;28;20640;-71
2022/05/09 02:56:22;;;;;;;4.23;2.60;;;;;9.20;102096.00;;;;4929492;28;20815;-72
2022/05/09 02:59:08;;;;;;;3.73;2.50;;;;;9.30;102100.00;;;;4923084;28;20232;-69
2022/05/09 03:01:54;;;;;;;9.67;3.50;;;;;9.20;102102.00;;;;4928867;28;20367;-69
2022/05/09 03:04:41;;;;;;;4.73;2.23;;;;;9.20;102090.00;;;;4929155;28;20244;-72
2022/05/09 03:07:28;;;;;;;5.93;2.20;;;;;9.10;102097.00;;;;4929448;28;20600;-71
2022/05/09 03:10:14;;;;;;;4.47;2.70;;;;;9.00;102094.00;;;;4923291;28;20304;-70
2022/05/09 03:13:01;;;;;;;3.33;2.23;;;;;9.00;102101.00;;;;4922500;28;20232;-70
2022/05/09 03:15:49;;;;;;;4.40;2.57;;;;;9.00;102100.00;;;;4930708;28;20725;-69
2022/05/09 03:18:35;;;;;;;6.80;3.10;;;;;8.90;102095.00;;;;4928836;28;20305;-69
2022/05/09 03:21:23;;;;;;;7.63;3.23;;;;;9.00;102095.00;;;;4927260;28;20251;-72
2022/05/09 03:24:09;;;;;;;5.67;2.17;;;;;8.90;102091.00;;;;4922550;28;20292;-72
2022/05/09 03:26:55;;;;;;;4.07;2.40;;;;;8.90;102094.00;;;;4928753;28;20240;-73
2022/05/09 03:29:42;;;;;;;6.13;2.80;;;;;8.90;102091.00;;;;4928639;28;20236;-69
2022/05/09 03:32:28;;;;;;;3.87;2.40;;;;;8.80;102087.00;;;;4928348;28;20241;-72
2022/05/09 03:35:15;;;;;;;2.53;2.20;;;;;8.70;102083.00;;;;4925235;28;20237;-73
2022/05/09 03:38:04;;;;;;;5.63;2.47;;;;;8.80;102082.00;;;;4928563;28;20330;-72
2022/05/09 03:40:50;;;;;;;4.87;2.73;;;;;8.60;102082.00;;;;4928579;28;20240;-71
2022/05/09 03:43:36;;;;;;;5.17;2.50;;;;;8.60;102082.00;;;;4928165;28;20244;-70
2022/05/09 03:46:23;;;;;;;9.60;2.57;;;;;8.50;102087.00;;;;4928221;28;20240;-72
2022/05/09 03:49:11;;;;;;;8.40;2.97;;;;;8.60;102078.00;;;;4922029;28;20760;-72
2022/05/09 03:51:57;;;;;;;10.40;2.43;;;;;8.60;102084.00;;;;4928129;28;20715;-71
2022/05/09 03:54:44;;;;;;;9.80;2.70;;;;;8.50;102090.00;;;;4926144;28;20272;-72
2022/05/09 03:57:31;;;;;;;6.80;2.73;;;;;8.60;102081.00;;;;4928249;28;20236;-71
2022/05/09 04:00:19;;;;;;;4.60;3.17;;;;;8.60;102075.00;;;;4922883;28;20605;-72
2022/05/09 04:03:06;;;;;;;2.77;2.20;;;;;8.60;102068.00;;;;4918723;28;20622;-71
2022/05/09 04:05:53;;;;;;;4.63;2.63;;;;;8.50;102056.00;;;;4927847;28;20835;-71
2022/05/09 04:08:39;;;;;;;8.23;3.03;;;;;8.60;102073.00;;;;4928169;28;20396;-73
2022/05/09 04:11:26;;;;;;;4.50;2.53;;;;;8.60;102070.00;;;;4928142;28;20236;-72
2022/05/09 04:14:13;;;;;;;5.83;2.40;;;;;8.60;102076.00;;;;4927526;28;20320;-72
2022/05/09 04:16:58;;;;;;;2.93;2.37;;;;;8.60;102073.00;;;;4926348;28;20232;-71
2022/05/09 04:19:44;;;;;;;4.67;2.67;;;;;8.70;102073.00;;;;4925863;28;20986;-71
2022/05/09 04:22:31;;;;;;;4.03;2.70;;;;;8.80;102077.00;;;;4927768;28;20303;-71
2022/05/09 04:25:19;;;;;;;3.63;2.50;;;;;8.90;102082.00;;;;4921831;28;20244;-72
2022/05/09 04:28:08;;;;;;;7.83;2.50;;;;;9.00;102078.00;;;;4928175;28;20232;-71
2022/05/09 04:30:54;;;;;;;7.20;3.07;;;;;9.00;102082.00;;;;4927881;28;20236;-72
2022/05/09 04:33:47;;;;;;;5.67;2.70;;;;;9.10;102082.00;;;;4927834;28;20237;-72
2022/05/09 04:36:35;;;;;;;4.77;2.70;;;;;9.10;102082.00;;;;4927532;28;20236;-71
2022/05/09 04:39:22;;;;;;;3.97;2.60;;;;;9.10;102085.00;;;;4922636;28;20665;-72
2022/05/09 04:42:10;;;;;;;7.00;3.47;;;;;9.20;102075.00;;;;4920862;28;20236;-72
2022/05/09 04:44:58;;;;;;;5.40;2.63;;;;;9.30;102081.00;;;;4926210;28;20238;-72
2022/05/09 04:47:45;;;;;;;4.63;2.50;;;;;9.40;102077.00;;;;4925307;28;20228;-72
2022/05/09 04:50:32;;;;;;;5.30;3.10;;;;;9.50;102083.00;;;;4926121;28;20365;-73
2022/05/09 04:53:18;;;;;;;14.27;3.57;;;;;9.50;102078.00;;;;4921652;28;20250;-72
2022/05/09 04:56:05;;;;;;;7.77;3.23;;;;;9.60;102075.00;;;;4926167;28;21050;-71
2022/05/09 04:58:51;;;;;;;6.93;3.03;;;;;9.70;102072.00;;;;4926299;28;20236;-73
2022/05/09 05:01:39;;;;;;;6.33;3.10;;;;;9.80;102071.00;;;;4926891;28;20236;-71
2022/05/09 05:04:26;;;;;;;7.93;3.00;;;;;9.80;102075.00;;;;4924808;28;20272;-69
2022/05/09 05:07:12;;;;;;;5.27;2.60;;;;;9.90;102072.00;;;;4927753;28;20252;-71
2022/05/09 05:09:58;;;;;;;7.27;3.10;;;;;10.00;102065.00;;;;4927202;28;20598;-72
2022/05/09 05:12:45;;;;;;;5.43;3.03;;;;;10.10;102069.00;;;;4927545;28;20229;-72
2022/05/09 05:15:32;;;;;;;4.90;2.93;;;;;10.10;102068.00;;;;4923456;28;20236;-71
2022/05/09 05:18:23;;;;;;;7.70;3.20;;;;;10.10;102070.00;;;;4925451;28;20238;-71
2022/05/09 05:21:10;;;;;;;8.20;2.70;;;;;10.10;102070.00;;;;4924924;28;20234;-72
2022/05/09 05:23:56;;;;;;;9.17;3.23;;;;;10.30;102075.00;;;;4928292;28;20273;-72
2022/05/09 05:26:42;;;;;;;6.77;2.90;;;;;10.10;102078.00;;;;4928365;28;20736;-71
2022/05/09 05:29:29;;;;;;;5.90;3.07;;;;;10.30;102066.00;;;;4928988;28;20294;-73
2022/05/09 05:32:17;;;;;;;8.73;3.13;;;;;10.20;102066.00;;;;4929689;28;20279;-72
2022/05/09 05:35:07;;;;;;;7.20;2.50;;;;;10.40;102077.00;;;;4928614;28;21177;-71
2022/05/09 05:37:54;;;;;;;6.00;3.13;;;;;10.50;102072.00;;;;4929606;28;20237;-70
2022/05/09 05:40:40;;;;;;;9.47;4.47;;;;;10.50;102068.00;;;;4927344;28;20415;-70
2022/05/09 05:43:32;;;;;;;7.63;3.93;;;;;10.60;102073.00;;;;4928271;28;20610;-72
2022/05/09 05:46:19;;;;;;;8.23;3.17;;;;;10.70;102072.00;;;;4943642;28;20253;-72
2022/05/09 05:49:05;;;;;;;6.37;2.50;;;;;10.70;102076.00;;;;4944280;28;20228;-72
2022/05/09 05:51:52;;;;;;;5.67;2.87;;;;;10.90;102073.00;;;;4941057;28;20299;-74
2022/05/09 05:54:41;;;;;;;8.20;3.23;;;;;10.90;102074.00;;;;4949816;28;20317;-73
2022/05/09 05:57:29;;;;;;;5.63;2.80;;;;;11.10;102084.00;;;;4944756;28;20235;-74
2022/05/09 06:00:19;;;;;;;8.70;3.03;;;;;11.00;102077.00;;;;4950240;28;20235;-73
2022/05/09 06:03:07;;;;;;;5.13;2.93;;;;;11.00;102072.00;;;;4949098;28;20880;-72
2022/05/09 06:05:54;;;;;;;8.53;3.13;;;;;11.10;102073.00;;;;4949288;28;20333;-73
2022/05/09 06:08:43;;;;;;;5.40;3.00;;;;;11.20;102072.00;;;;4949541;28;20305;-72
2022/05/09 06:11:29;;;;;;;9.37;4.10;;;;;11.30;102070.00;;;;4949716;28;20895;-72
2022/05/09 06:14:16;;;;;;;6.50;3.07;;;;;11.40;102060.00;;;;4954826;28;20231;-72
2022/05/09 06:17:03;;;;;;;8.73;3.23;;;;;11.50;102062.00;;;;4948963;28;20326;-72
2022/05/09 06:19:49;;;;;;;7.43;3.00;;;;;11.50;102067.00;;;;4953493;28;20618;-73
2022/05/09 06:22:38;;;;;;;6.73;2.50;;;;;11.70;102069.00;;;;4949162;28;20227;-73
2022/05/09 06:25:28;;;;;;;7.03;3.00;;;;;11.80;102076.00;;;;4949529;28;20255;-72
2022/05/09 06:28:16;;;;;;;9.03;2.63;;;;;11.90;102075.00;;;;4941364;28;20378;-72
2022/05/09 06:31:02;;;;;;;8.63;2.67;;;;;11.90;102065.00;;;;4949331;28;20283;-72
2022/05/09 06:33:49;;;;;;;6.50;3.03;;;;;11.90;102067.00;;;;4948496;28;20986;-72
2022/05/09 06:36:35;;;;;;;4.10;2.60;;;;;12.00;102063.00;;;;4946950;28;20632;-72
2022/05/09 06:39:21;;;;;;;7.03;2.87;;;;;12.10;102071.00;;;;4943109;28;20688;-72
2022/05/09 06:42:10;;;;;;;8.70;2.80;;;;;12.40;102069.00;;;;4948663;28;20239;-71
2022/05/09 06:44:56;;;;;;;5.30;3.20;;;;;12.50;102068.00;;;;4948162;28;20797;-71
2022/05/09 06:47:46;;;;;;;9.33;3.00;;;;;12.50;102060.00;;;;4949132;28;20312;-72
2022/05/09 06:50:34;;;;;;;5.67;3.10;;;;;12.50;102070.00;;;;4946427;28;20232;-71
2022/05/09 06:53:20;;;;;;;7.73;3.00;;;;;12.60;102062.00;;;;4942116;28;20720;-68
2022/05/09 06:56:08;;;;;;;7.67;3.17;;;;;12.60;102055.00;;;;4948396;28;20224;-72
2022/05/09 06:58:55;;;;;;;8.40;3.20;;;;;12.70;102064.00;;;;4948601;28;20232;-71
2022/05/09 07:01:42;;;;;;;7.33;3.57;;;;;12.80;102061.00;;;;4948845;28;20743;-71
2022/05/09 07:04:29;;;;;;;5.63;3.10;;;;;12.90;102061.00;;;;4943102;28;20239;-71
2022/05/09 07:07:16;;;;;;;6.43;3.33;;;;;13.10;102062.00;;;;4941588;28;20251;-71
2022/05/09 07:10:02;;;;;;;5.13;2.60;;;;;13.10;102065.00;;;;4948233;28;20363;-71
2022/05/09 07:12:52;;;;;;;6.30;3.03;;;;;13.40;102068.00;;;;4948105;28;20240;-71
2022/05/09 07:15:40;;;;;;;3.67;2.60;;;;;13.50;102067.00;;;;4952551;28;20239;-73
2022/05/09 07:18:28;;;;;;;7.33;3.03;;;;;13.50;102068.00;;;;4944041;28;20284;-72
2022/05/09 07:21:14;;;;;;;6.60;2.90;;;;;13.60;102063.00;;;;4950793;28;20231;-73
2022/05/09 07:24:01;;;;;;;6.77;3.10;;;;;13.80;102050.00;;;;4947936;28;20728;-73
2022/05/09 07:26:47;;;;;;;9.90;3.20;;;;;13.80;102061.00;;;;4948016;28;20248;-72
2022/05/09 07:29:33;;;;;;;5.03;2.80;;;;;13.90;102058.00;;;;4947736;28;20724;-71
2022/05/09 07:32:21;;;;;;;7.73;2.83;;;;;14.00;102059.00;;;;4947512;28;20398;-73
2022/05/09 07:35:11;;;;;;;5.93;2.70;;;;;14.00;102045.00;;;;4947097;28;20248;-73
2022/05/09 07:37:58;;;;;;;7.37;2.60;;;;;14.10;102047.00;;;;4947790;28;20239;-73
2022/05/09 07:40:49;;;;;;;5.87;3.03;;;;;14.40;102045.00;;;;4936792;28;20303;-73
2022/05/09 07:43:36;;;;;;;8.60;3.10;;;;;14.60;102043.00;;;;4947774;28;20368;-73
2022/05/09 07:46:28;;;;;;;5.87;3.20;;;;;14.60;102045.00;;;;4942241;28;20232;-74
2022/05/09 07:49:31;;;;;;;11.47;3.30;;;;;15.00;102053.00;;;;4943147;28;20299;-72
2022/05/09 07:52:18;;;;;;;4.47;2.57;;;;;15.20;102064.00;;;;4948173;28;20904;-74
2022/05/09 07:55:05;;;;;;;4.77;2.87;;;;;15.30;102061.00;;;;4947373;28;20247;-74
2022/05/09 07:57:52;;;;;;;8.37;3.33;;;;;15.20;102056.00;;;;4947432;28;20248;-74
2022/05/09 08:00:43;;;;;;;5.83;2.50;;;;;15.40;102045.00;;;;4947976;28;20922;-73
2022/05/09 08:03:31;;;;;;;7.83;3.00;;;;;15.70;102059.00;;;;4941529;28;20236;-74
2022/05/09 08:06:19;;;;;;;5.73;2.70;;;;;15.90;102052.00;;;;4940731;28;20232;-73
2022/05/09 08:09:05;;;;;;;6.33;2.73;;;;;15.90;102049.00;;;;4946277;28;20232;-73
2022/05/09 08:11:51;;;;;;;7.17;2.83;;;;;16.20;102051.00;;;;4946858;28;20363;-74
2022/05/09 08:14:37;;;;;;;6.40;2.97;;;;;16.40;102047.00;;;;4955258;28;20230;-74
2022/05/09 08:17:24;;;;;;;3.97;2.80;;;;;16.60;102048.00;;;;4940922;28;20240;-72
2022/05/09 08:20:12;;;;;;;5.50;2.17;;;;;16.80;102046.00;;;;4950430;28;20387;-73
2022/05/09 08:23:06;;;;;;;4.67;2.30;;;;;17.00;102047.00;;;;4936864;28;20228;-70
2022/05/09 08:25:53;;;;;;;4.17;2.40;;;;;17.10;102043.00;;;;4944835;28;20240;-72
2022/05/09 08:28:39;;;;;;;5.43;2.97;;;;;17.20;102044.00;;;;4944805;28;20317;-72
2022/05/09 08:31:26;;;;;;;6.40;2.53;;;;;17.40;102035.00;;;;4943778;28;20237;-74
2022/05/09 08:34:14;;;;;;;6.57;2.83;;;;;17.60;102044.00;;;;4947058;28;20233;-73
2022/05/09 08:37:00;;;;;;;8.50;2.90;;;;;17.80;102040.00;;;;4947358;28;20231;-73
2022/05/09 08:39:49;;;;;;;3.27;2.10;;;;;18.10;102046.00;;;;4947749;28;20235;-73
2022/05/09 08:42:46;;;;;;;5.80;2.83;;;;;18.40;102035.00;;;;4943941;28;20368;-72
2022/05/09 08:45:35;;;;;;;5.20;2.47;;;;;18.60;102038.00;;;;4941675;28;20319;-74
2022/05/09 08:48:34;;;;;;;4.67;2.63;;;;;18.60;102047.00;;;;4946823;28;20619;-70
2022/05/09 08:51:36;;;;;;;5.37;2.43;;;;;18.70;102049.00;;;;4939320;28;20299;-73
2022/05/09 08:54:23;;;;;;;6.93;3.03;;;;;18.70;102033.00;;;;4939613;28;20310;-72
2022/05/09 08:57:14;;;;;;;6.70;2.70;;;;;18.70;102038.00;;;;4947129;28;20296;-71
2022/05/09 09:00:04;;;;;;;35.07;5.17;;;;;18.90;102042.00;;;;4946243;28;20793;-73
2022/05/09 09:02:59;;;;;;;34.00;7.80;;;;;19.30;102039.00;;;;4947041;28;20641;-71
2022/05/09 09:05:49;;;;;;;5.90;3.10;;;;;19.20;102041.00;;;;4942862;28;20236;-72
2022/05/09 09:08:53;;;;;;;8.80;3.50;;;;;19.60;102037.00;;;;4941236;28;20287;-72
2022/05/09 09:11:48;;;;;;;4.63;2.60;;;;;19.70;102040.00;;;;4946822;28;20329;-73
2022/05/09 09:14:49;;;;;;;12.80;3.10;;;;;20.00;102032.00;;;;4944933;28;20239;-72
2022/05/09 09:17:55;;;;;;;6.37;3.00;;;;;20.20;102037.00;;;;4940809;28;20235;-73
2022/05/09 09:20:49;;;;;;;5.63;2.90;;;;;20.30;102017.00;;;;4945892;28;20238;-73
2022/05/09 09:23:59;;;;;;;5.10;2.63;;;;;20.30;102028.00;;;;4942874;28;20231;-72
2022/05/09 09:26:55;;;;;;;4.70;3.07;;;;;20.40;102015.00;;;;4942405;28;20235;-74
2022/05/09 09:29:48;;;;;;;8.27;3.50;;;;;20.70;102025.00;;;;4944211;28;20248;-74
2022/05/09 09:32:34;;;;;;;6.30;3.07;;;;;20.90;102020.00;;;;4940819;28;20228;-73
2022/05/09 09:35:30;;;;;;;5.27;3.13;;;;;21.20;102037.00;;;;4939709;28;20247;-72
2022/05/09 09:38:40;;;;;;;7.40;3.47;;;;;21.40;102030.00;;;;4946834;28;20292;-73
2022/05/09 09:41:30;;;;;;;6.33;3.33;;;;;21.60;102029.00;;;;4947044;28;20233;-75
2022/05/09 09:44:18;;;;;;;8.00;3.50;;;;;21.60;102037.00;;;;4943786;28;20240;-73
2022/05/09 09:47:09;;;;;;;13.77;3.40;;;;;204.60;224519.00;;;;4946670;28;20829;-73
2022/05/09 09:50:12;;;;;;;5.40;3.50;;;;;22.10;102021.00;;;;4948024;28;20237;-73
2022/05/09 09:53:00;;;;;;;8.23;3.23;;;;;21.80;102025.00;;;;4946017;28;20234;-71
2022/05/09 09:56:00;;;;;;;6.70;3.47;;;;;21.90;102021.00;;;;4945513;28;20311;-75
2022/05/09 09:58:49;;;;;;;5.80;3.30;;;;;21.90;102017.00;;;;4942602;28;20246;-72
2022/05/09 10:01:35;;;;;;;6.20;3.20;;;;;22.20;102015.00;;;;4944419;28;20253;-75
2022/05/09 10:04:28;;;;;;;5.77;3.27;;;;;22.50;102011.00;;;;4946633;28;20242;-74
2022/05/09 10:07:25;;;;;;;5.40;3.40;;;;;22.10;101998.00;;;;4947660;28;20241;-74
2022/05/09 10:10:15;;;;;;;5.80;3.27;;;;;22.40;102009.00;;;;4947504;28;20259;-75
2022/05/09 10:13:18;;;;;;;5.00;3.57;;;;;22.90;102013.00;;;;4948024;28;20721;-75
2022/05/09 10:16:08;;;;;;;6.77;3.73;;;;;22.90;102012.00;;;;4948163;28;20813;-74
2022/05/09 10:18:56;;;;;;;6.17;3.73;;;;;22.80;102004.00;;;;4947284;28;20312;-74
2022/05/09 10:25:10;;;;;;;5.40;3.50;;;;;23.10;101999.00;;;;4927953;28;20253;-73
2022/05/09 10:28:06;;;;;;;5.80;3.80;;;;;23.50;101999.00;;;;4929909;28;20286;-75
2022/05/09 10:31:01;;;;;;;5.60;4.10;;;;;23.50;101999.00;;;;4926507;28;20547;-72
2022/05/09 10:33:55;;;;;;;8.47;4.00;;;;;23.50;101987.00;;;;4925743;28;20240;-73
2022/05/09 10:36:45;;;;;;;6.60;3.90;;;;;23.60;101977.00;;;;4927401;28;20310;-74
2022/05/09 10:39:37;;;;;;;7.20;3.83;;;;;23.50;101979.00;;;;4923332;28;20233;-75
2022/05/09 10:42:33;;;;;;;5.93;3.77;;;;;23.40;101985.00;;;;4922339;28;20229;-74
2022/05/09 10:45:24;;;;;;;5.10;3.70;;;;;23.40;101975.00;;;;4930155;28;20221;-72
2022/05/09 10:48:16;;;;;;;6.37;4.20;;;;;23.70;101955.00;;;;4929671;28;20248;-74
2022/05/09 10:51:10;;;;;;;7.40;3.93;;;;;24.00;101955.00;;;;4925786;28;20300;-73
2022/05/09 10:54:13;;;;;;;6.83;4.23;;;;;24.20;101968.00;;;;4926053;28;20441;-74
2022/05/09 10:57:07;;;;;;;6.60;4.40;;;;;24.30;101973.00;;;;4929152;28;20233;-74
2022/05/09 11:00:19;;;;;;;4.43;3.77;;;;;24.40;101968.00;;;;4928479;28;20229;-73
2022/05/09 11:03:26;;;;;;;10.73;5.53;;;;;24.50;101963.00;;;;4928916;28;20240;-73
2022/05/09 11:06:24;;;;;;;5.50;3.80;;;;;24.10;101955.00;;;;4929384;28;20372;-74
2022/05/09 11:09:31;;;;;;;6.40;4.17;;;;;23.80;101966.00;;;;4929226;28;20601;-73
2022/05/09 11:12:33;;;;;;;8.53;4.00;;;;;24.00;101956.00;;;;4948292;28;20236;-73
2022/05/09 11:15:29;;;;;;;7.50;4.17;;;;;24.40;101948.00;;;;4944445;28;20243;-72
2022/05/09 11:18:32;;;;;;;6.77;3.63;;;;;24.50;101944.00;;;;4951777;28;20231;-73
2022/05/09 11:21:27;;;;;;;9.83;4.10;;;;;24.70;101936.00;;;;4953265;28;20231;-72
2022/05/09 11:24:25;;;;;;;10.87;3.73;;;;;25.00;101934.00;;;;4947831;28;20270;-71
2022/05/09 11:27:26;;;;;;;5.90;4.00;;;;;25.20;101937.00;;;;4948204;28;22440;-72
2022/05/09 11:30:33;;;;;;;6.40;4.30;;;;;25.30;101932.00;;;;4940278;28;20608;-73
2022/05/09 11:33:38;;;;;;;6.03;3.93;;;;;25.20;101930.00;;;;4947458;28;20243;-73
2022/05/09 11:36:45;;;;;;;5.37;3.43;;;;;25.30;101927.00;;;;4947913;28;20338;-72
2022/05/09 11:39:40;;;;;;;6.10;3.77;;;;;25.90;101914.00;;;;4941465;28;20705;-74
2022/05/09 11:45:57;;;;;;;5.50;4.17;;;;;25.70;101934.00;;;;4925867;28;20233;-73
2022/05/09 11:48:57;;;;;;;5.03;3.77;;;;;26.10;101930.00;;;;4925716;28;20264;-73
2022/05/09 11:51:47;;;;;;;7.97;4.10;;;;;26.00;101917.00;;;;4925776;28;20251;-71
2022/05/09 11:54:38;;;;;;;7.10;4.47;;;;;26.00;101917.00;;;;4924375;28;20248;-70
2022/05/09 11:57:29;;;;;;;6.18;4.40;;;;;25.90;101909.00;;;;4926449;28;20305;-72
2022/05/09 12:00:49;;;;;;;6.78;4.22;;;;;25.90;101907.00;;;;4924562;28;20236;-72
2022/05/09 12:04:03;;;;;;;5.88;4.00;;;;;26.40;101901.00;;;;4926512;28;20832;-72
2022/05/09 12:06:50;;;;;;;7.60;4.13;;;;;26.50;101897.00;;;;4946423;28;20256;-72
2022/05/09 12:10:00;;;;;;;4.57;3.72;;;;;26.90;101884.00;;;;4946307;28;20291;-73
2022/05/09 12:12:54;;;;;;;6.25;3.70;;;;;26.90;101897.00;;;;4944024;28;20228;-75
2022/05/09 12:15:47;;;;;;;6.53;4.20;;;;;27.00;101908.00;;;;4941947;28;20965;-74
2022/05/09 12:18:53;;;;;;;5.18;4.28;;;;;26.90;101900.00;;;;4940282;28;20235;-75
2022/05/09 12:21:41;;;;;;;10.23;4.38;;;;;27.10;101901.00;;;;4938797;28;20299;-73
2022/05/09 12:24:33;;;;;;;5.78;4.22;;;;;27.20;101895.00;;;;4946272;28;20376;-74
2022/05/09 12:27:43;;;;;;;5.05;4.30;;;;;27.00;101900.00;;;;4945464;28;20336;-72
2022/05/09 12:30:43;;;;;;;6.72;3.78;;;;;27.30;101896.00;;;;4946405;28;20239;-74
2022/05/09 12:33:39;;;;;;;6.85;4.15;;;;;27.90;101885.00;;;;4946469;28;20248;-73
2022/05/09 12:36:30;;;;;;;6.18;3.95;;;;;27.70;101874.00;;;;4946958;28;20231;-74
2022/05/09 12:39:25;;;;;;;5.63;3.80;;;;;27.80;101873.00;;;;4947243;28;20228;-73
2022/05/09 12:42:26;;;;;;;7.78;4.28;;;;;28.00;101874.00;;;;4944401;28;20252;-74
2022/05/09 12:45:15;;;;;;;4.60;3.75;;;;;28.10;101876.00;;;;4946916;28;20236;-72
2022/05/09 12:48:02;;;;;;;8.45;4.35;;;;;27.50;101865.00;;;;4947194;28;20890;-72
2022/05/09 12:50:54;;;;;;;6.88;4.03;;;;;26.80;101870.00;;;;4946681;28;20764;-75
2022/05/09 12:53:42;;;;;;;7.00;4.15;;;;;26.70;101865.00;;;;4940706;28;20730;-76
2022/05/09 12:56:32;;;;;;;8.65;3.83;;;;;27.20;101870.00;;;;4946980;28;20248;-73
2022/05/09 12:59:19;;;;;;;5.28;4.22;;;;;27.90;101857.00;;;;4947380;28;20236;-74
2022/05/09 13:02:05;;;;;;;7.68;4.90;;;;;27.50;101854.00;;;;4946760;28;20263;-75
2022/05/09 13:05:13;;;;;;;7.00;4.85;;;;;26.70;101849.00;;;;4946929;28;20899;-74
2022/05/09 13:08:02;;;;;;;6.63;4.43;;;;;26.60;101855.00;;;;4947472;28;20236;-75
2022/05/09 13:10:53;;;;;;;6.50;4.13;;;;;26.40;101865.00;;;;4947164;28;20244;-72
2022/05/09 13:13:46;;;;;;;8.25;4.60;;;;;25.90;101858.00;;;;4948520;28;20232;-71
2022/05/09 13:16:36;;;;;;;7.22;5.07;;;;;25.80;101858.00;;;;4939570;28;20233;-74
2022/05/09 13:19:24;;;;;;;6.88;5.05;;;;;25.70;101841.00;;;;4951072;28;20238;-72
2022/05/09 13:22:10;;;;;;;5.10;4.45;;;;;26.40;101846.00;;;;4949223;28;20244;-75
2022/05/09 13:24:59;;;;;;;6.53;4.57;;;;;26.50;101820.00;;;;4946600;28;20317;-72
2022/05/09 13:27:48;;;;;;;6.80;4.60;;;;;26.30;101842.00;;;;4943290;28;20731;-76
2022/05/09 13:30:38;;;;;;;6.10;4.82;;;;;26.40;101830.00;;;;4921220;28;20734;-74
2022/05/09 13:33:27;;;;;;;5.33;4.23;;;;;26.90;101831.00;;;;4935155;28;20236;-74
2022/05/09 13:36:14;;;;;;;5.45;4.45;;;;;27.40;101832.00;;;;4946682;28;20232;-74
2022/05/09 13:39:00;;;;;;;7.28;4.50;;;;;27.80;101823.00;;;;4946151;28;20239;-75
2022/05/09 13:41:47;;;;;;;5.90;3.60;;;;;28.20;101821.00;;;;4944652;28;20265;-75
2022/05/09 13:44:33;;;;;;;4.78;3.85;;;;;28.70;101826.00;;;;4942628;28;20308;-78
2022/05/09 13:47:23;;;;;;;4.32;3.83;;;;;28.70;101820.00;;;;4950078;28;20598;-78
2022/05/09 13:50:12;;;;;;;4.63;4.13;;;;;28.80;101821.00;;;;4949779;28;20251;-75
2022/05/09 13:53:04;;;;;;;5.97;3.65;;;;;29.20;101813.00;;;;4950030;28;20235;-76
2022/05/09 13:55:50;;;;;;;5.20;3.60;;;;;29.50;101817.00;;;;4950405;28;20287;-75
2022/05/09 13:58:38;;;;;;;7.75;3.97;;;;;29.50;101815.00;;;;4950242;28;20232;-75
2022/05/09 14:01:26;;;;;;;5.72;3.97;;;;;204.60;224519.00;;;;4950103;28;20284;-74
2022/05/09 14:04:17;;;;;;;5.40;4.00;;;;;204.60;224519.00;;;;4949602;28;20357;-74
2022/05/09 14:07:37;;;;;;;9.50;4.22;;;;;204.60;224519.00;;;;4950054;28;20298;-72
2022/05/09 14:10:18;;;;;;;6.72;3.67;;;;;204.60;224519.00;;;;4946621;28;20244;-74
2022/05/09 14:13:24;;;;;;;5.38;3.75;;;;;204.60;224519.00;;;;4951030;28;20231;-74